sensor_id;sensor_type;location;lat;lon;timestamp;pressure;altitude;pressure_sealevel;temperature;humidity
69528;BME280;57136;51.986;4.468;2022-11-18T00:00:52;99467.19;;;8.99;100.00
69528;BME280;57136;51.986;4.468;2022-11-18T00:03:17;99469.75;;;9.01;100.00
69528;BME280;57136;51.986;4.468;2022-11-18T00:05:51;99468.06;;;8.97;100.00
69528;BME280;57136;51.986;4.468;2022-11-18T00:08:16;99475.81;;;9.03;100.00
69528;BME280;57136;51.986;4.468;2022-11-18T00:10:42;99477.47;;;9.09;100.00
69528;BME280;57136;51.986;4.468;2022-11-18T00:13:11;99486.09;;;9.14;100.00
69528;BME280;57136;51.986;4.468;2022-11-18T00:16:07;99492.13;;;9.16;100.00
69528;BME280;57136;51.986;4.468;2022-11-18T00:18:33;99490.44;;;9.13;100.00
69528;BME280;57136;51.986;4.468;2022-11-18T00:21:08;99496.53;;;9.08;100.00
69528;BME280;57136;51.986;4.468;2022-11-18T00:23:34;99498.22;;;9.13;100.00
69528;BME280;57136;51.986;4.468;2022-11-18T00:26:09;99496.56;;;9.06;100.00
69528;BME280;57136;51.986;4.468;2022-11-18T00:28:35;99509.47;;;9.14;100.00
69528;BME280;57136;51.986;4.468;2022-11-18T00:31:06;99506.09;;;9.07;100.00
69528;BME280;57136;51.986;4.468;2022-11-18T00:33:32;99515.75;;;8.93;100.00
69528;BME280;57136;51.986;4.468;2022-11-18T00:35:58;99516.56;;;8.99;100.00
69528;BME280;57136;51.986;4.468;2022-11-18T00:38:24;99518.44;;;8.85;100.00
69528;BME280;57136;51.986;4.468;2022-11-18T00:40:58;99521.03;;;8.85;100.00
69528;BME280;57136;51.986;4.468;2022-11-18T00:43:24;99520.06;;;8.95;100.00
69528;BME280;57136;51.986;4.468;2022-11-18T00:45:49;99522.63;;;8.97;100.00
69528;BME280;57136;51.986;4.468;2022-11-18T00:48:15;99524.44;;;8.92;100.00
69528;BME280;57136;51.986;4.468;2022-11-18T00:50:48;99526.16;;;8.91;100.00
69528;BME280;57136;51.986;4.468;2022-11-18T00:53:14;99537.34;;;8.99;100.00
69528;BME280;57136;51.986;4.468;2022-11-18T00:55:40;99539.94;;;8.98;100.00
69528;BME280;57136;51.986;4.468;2022-11-18T00:58:05;99539.06;;;8.99;100.00
69528;BME280;57136;51.986;4.468;2022-11-18T01:00:31;99547.94;;;8.79;100.00
69528;BME280;57136;51.986;4.468;2022-11-18T01:02:56;99548.75;;;8.83;100.00
69528;BME280;57136;51.986;4.468;2022-11-18T01:05:22;99546.06;;;8.95;100.00
69528;BME280;57136;51.986;4.468;2022-11-18T01:07:47;99553.91;;;8.89;100.00
69528;BME280;57136;51.986;4.468;2022-11-18T01:10:12;99554.75;;;8.91;100.00
69528;BME280;57136;51.986;4.468;2022-11-18T01:12:38;99565.16;;;8.90;100.00
69528;BME280;57136;51.986;4.468;2022-11-18T01:15:22;99565.16;;;8.91;100.00
69528;BME280;57136;51.986;4.468;2022-11-18T01:17:47;99566.03;;;8.87;100.00
69528;BME280;57136;51.986;4.468;2022-11-18T01:20:14;99576.38;;;8.93;100.00
69528;BME280;57136;51.986;4.468;2022-11-18T01:22:39;99572.88;;;9.01;100.00
69528;BME280;57136;51.986;4.468;2022-11-18T01:25:05;99579.84;;;8.95;100.00
69528;BME280;57136;51.986;4.468;2022-11-18T01:27:31;99583.31;;;8.94;100.00
69528;BME280;57136;51.986;4.468;2022-11-18T01:29:56;99589.38;;;8.93;100.00
69528;BME280;57136;51.986;4.468;2022-11-18T01:32:21;99587.59;;;8.97;100.00
69528;BME280;57136;51.986;4.468;2022-11-18T01:34:47;99592.88;;;8.89;100.00
69528;BME280;57136;51.986;4.468;2022-11-18T01:37:13;99590.31;;;8.88;100.00
69528;BME280;57136;51.986;4.468;2022-11-18T01:39:38;99600.72;;;8.84;100.00
69528;BME280;57136;51.986;4.468;2022-11-18T01:42:04;99596.38;;;8.82;100.00
69528;BME280;57136;51.986;4.468;2022-11-18T01:47:30;99609.44;;;8.76;100.00
69528;BME280;57136;51.986;4.468;2022-11-18T01:49:58;99611.13;;;8.81;100.00
69528;BME280;57136;51.986;4.468;2022-11-18T01:52:23;99614.63;;;8.77;100.00
69528;BME280;57136;51.986;4.468;2022-11-18T01:54:52;99607.69;;;8.76;100.00
69528;BME280;57136;51.986;4.468;2022-11-18T01:57:20;99609.44;;;8.77;100.00
69528;BME280;57136;51.986;4.468;2022-11-18T01:59:49;99607.72;;;8.75;100.00
69528;BME280;57136;51.986;4.468;2022-11-18T02:02:18;99612.06;;;8.76;100.00
69528;BME280;57136;51.986;4.468;2022-11-18T02:04:47;99614.69;;;8.69;100.00
69528;BME280;57136;51.986;4.468;2022-11-18T02:07:13;99610.38;;;8.68;100.00
69528;BME280;57136;51.986;4.468;2022-11-18T02:09:39;99618.13;;;8.75;100.00
69528;BME280;57136;51.986;4.468;2022-11-18T02:12:05;99615.47;;;8.79;100.00
69528;BME280;57136;51.986;4.468;2022-11-18T02:14:34;99614.66;;;8.74;100.00
69528;BME280;57136;51.986;4.468;2022-11-18T02:30:39;99649.25;;;8.76;100.00
69528;BME280;57136;51.986;4.468;2022-11-18T02:33:13;99656.22;;;8.73;100.00
69528;BME280;57136;51.986;4.468;2022-11-18T02:35:51;99658.03;;;8.61;100.00
69528;BME280;57136;51.986;4.468;2022-11-18T02:38:33;99657.19;;;8.56;100.00
69528;BME280;57136;51.986;4.468;2022-11-18T02:41:04;99665.81;;;8.61;100.00
69528;BME280;57136;51.986;4.468;2022-11-18T02:43:34;99663.19;;;8.64;100.00
69528;BME280;57136;51.986;4.468;2022-11-18T02:46:07;99671.91;;;8.57;100.00
69528;BME280;57136;51.986;4.468;2022-11-18T02:48:38;99664.97;;;8.61;100.00
69528;BME280;57136;51.986;4.468;2022-11-18T02:51:06;99664.13;;;8.46;100.00
69528;BME280;57136;51.986;4.468;2022-11-18T02:53:34;99663.25;;;8.52;100.00
69528;BME280;57136;51.986;4.468;2022-11-18T02:56:01;99667.59;;;8.53;100.00
69528;BME280;57136;51.986;4.468;2022-11-18T02:58:27;99664.13;;;8.52;100.00
69528;BME280;57136;51.986;4.468;2022-11-18T03:00:54;99665.88;;;8.47;100.00
69528;BME280;57136;51.986;4.468;2022-11-18T03:03:32;99675.44;;;8.34;100.00
69528;BME280;57136;51.986;4.468;2022-11-18T03:09:08;99676.34;;;8.27;100.00
69528;BME280;57136;51.986;4.468;2022-11-18T03:17:54;99685.81;;;8.44;100.00
69528;BME280;57136;51.986;4.468;2022-11-18T03:20:37;99669.34;;;8.49;100.00
69528;BME280;57136;51.986;4.468;2022-11-18T03:23:18;99684.84;;;8.60;100.00
69528;BME280;57136;51.986;4.468;2022-11-18T03:26:00;99695.25;;;8.62;100.00
69528;BME280;57136;51.986;4.468;2022-11-18T03:28:29;99686.56;;;8.64;100.00
69528;BME280;57136;51.986;4.468;2022-11-18T03:31:02;99694.38;;;8.64;100.00
69528;BME280;57136;51.986;4.468;2022-11-18T03:33:36;99691.66;;;8.81;100.00
69528;BME280;57136;51.986;4.468;2022-11-18T03:36:06;99696.75;;;8.95;100.00
69528;BME280;57136;51.986;4.468;2022-11-18T03:38:38;99707.13;;;8.97;100.00
69528;BME280;57136;51.986;4.468;2022-11-18T03:41:07;99704.53;;;9.02;100.00
69528;BME280;57136;51.986;4.468;2022-11-18T03:43:38;99700.13;;;9.08;100.00
69528;BME280;57136;51.986;4.468;2022-11-18T03:46:10;99704.53;;;8.94;100.00
69528;BME280;57136;51.986;4.468;2022-11-18T03:48:54;99696.59;;;9.19;100.00
69528;BME280;57136;51.986;4.468;2022-11-18T03:51:41;99706.09;;;9.21;100.00
69528;BME280;57136;51.986;4.468;2022-11-18T03:54:24;99707.88;;;9.13;100.00
69528;BME280;57136;51.986;4.468;2022-11-18T03:57:07;99717.50;;;9.02;100.00
69528;BME280;57136;51.986;4.468;2022-11-18T04:00:05;99718.50;;;8.82;100.00
69528;BME280;57136;51.986;4.468;2022-11-18T04:02:29;99719.38;;;8.79;100.00
69528;BME280;57136;51.986;4.468;2022-11-18T04:04:56;99727.13;;;8.87;100.00
69528;BME280;57136;51.986;4.468;2022-11-18T04:07:32;99730.50;;;8.97;100.00
69528;BME280;57136;51.986;4.468;2022-11-18T04:10:39;99738.38;;;8.89;100.00
69528;BME280;57136;51.986;4.468;2022-11-18T04:13:11;99734.94;;;8.82;100.00
69528;BME280;57136;51.986;4.468;2022-11-18T04:15:41;99734.13;;;8.76;100.00
69528;BME280;57136;51.986;4.468;2022-11-18T04:18:08;99725.47;;;8.77;100.00
69528;BME280;57136;51.986;4.468;2022-11-18T04:20:34;99741.97;;;8.63;100.00
69528;BME280;57136;51.986;4.468;2022-11-18T04:23:02;99754.06;;;8.72;100.00
69528;BME280;57136;51.986;4.468;2022-11-18T04:25:27;99742.72;;;8.86;100.00
69528;BME280;57136;51.986;4.468;2022-11-18T04:27:52;99750.53;;;8.82;100.00
69528;BME280;57136;51.986;4.468;2022-11-18T04:30:18;99760.88;;;8.92;100.00
69528;BME280;57136;51.986;4.468;2022-11-18T04:32:44;99760.91;;;8.89;100.00
69528;BME280;57136;51.986;4.468;2022-11-18T04:35:10;99766.97;;;8.91;100.00
69528;BME280;57136;51.986;4.468;2022-11-18T04:37:35;99773.91;;;8.89;100.00
69528;BME280;57136;51.986;4.468;2022-11-18T04:40:01;99770.41;;;8.91;100.00
69528;BME280;57136;51.986;4.468;2022-11-18T04:42:27;99773.88;;;8.90;100.00
69528;BME280;57136;51.986;4.468;2022-11-18T04:44:52;99783.44;;;8.87;100.00
69528;BME280;57136;51.986;4.468;2022-11-18T04:47:18;99791.22;;;8.82;100.00
69528;BME280;57136;51.986;4.468;2022-11-18T04:49:43;99785.16;;;8.88;100.00
69528;BME280;57136;51.986;4.468;2022-11-18T04:52:08;99790.38;;;8.80;100.00
69528;BME280;57136;51.986;4.468;2022-11-18T04:54:34;99797.34;;;8.73;100.00
69528;BME280;57136;51.986;4.468;2022-11-18T04:56:59;99797.34;;;8.70;100.00
69528;BME280;57136;51.986;4.468;2022-11-18T04:59:26;99798.22;;;8.74;100.00
69528;BME280;57136;51.986;4.468;2022-11-18T05:01:53;99799.97;;;8.72;100.00
69528;BME280;57136;51.986;4.468;2022-11-18T05:04:23;99807.78;;;8.62;100.00
69528;BME280;57136;51.986;4.468;2022-11-18T05:06:49;99812.13;;;8.60;100.00
69528;BME280;57136;51.986;4.468;2022-11-18T05:09:16;99819.88;;;8.68;100.00
69528;BME280;57136;51.986;4.468;2022-11-18T05:11:41;99821.59;;;8.74;100.00
69528;BME280;57136;51.986;4.468;2022-11-18T05:14:26;99816.47;;;8.60;100.00
69528;BME280;57136;51.986;4.468;2022-11-18T05:16:52;99823.38;;;8.58;100.00
69528;BME280;57136;51.986;4.468;2022-11-18T05:19:18;99818.22;;;8.47;100.00
69528;BME280;57136;51.986;4.468;2022-11-18T05:21:43;99826.84;;;8.52;100.00
69528;BME280;57136;51.986;4.468;2022-11-18T05:24:09;99826.03;;;8.50;100.00
69528;BME280;57136;51.986;4.468;2022-11-18T05:26:34;99825.97;;;8.53;100.00
69528;BME280;57136;51.986;4.468;2022-11-18T05:29:00;99832.91;;;8.51;100.00
69528;BME280;57136;51.986;4.468;2022-11-18T05:31:25;99826.00;;;8.40;100.00
69528;BME280;57136;51.986;4.468;2022-11-18T05:33:50;99831.19;;;8.47;100.00
69528;BME280;57136;51.986;4.468;2022-11-18T05:36:18;99835.53;;;8.38;100.00
69528;BME280;57136;51.986;4.468;2022-11-18T05:38:43;99832.97;;;8.31;100.00
69528;BME280;57136;51.986;4.468;2022-11-18T05:41:09;99842.44;;;8.38;100.00
69528;BME280;57136;51.986;4.468;2022-11-18T05:43:55;99854.56;;;8.39;100.00
69528;BME280;57136;51.986;4.468;2022-11-18T05:46:20;99849.41;;;8.36;100.00
69528;BME280;57136;51.986;4.468;2022-11-18T05:48:45;99847.66;;;8.32;100.00
69528;BME280;57136;51.986;4.468;2022-11-18T05:51:11;99847.66;;;8.33;100.00
69528;BME280;57136;51.986;4.468;2022-11-18T05:53:36;99849.41;;;8.36;100.00
69528;BME280;57136;51.986;4.468;2022-11-18T05:56:16;99848.53;;;8.28;100.00
69528;BME280;57136;51.986;4.468;2022-11-18T05:58:43;99851.97;;;8.31;100.00
69528;BME280;57136;51.986;4.468;2022-11-18T06:01:09;99848.53;;;8.32;100.00
69528;BME280;57136;51.986;4.468;2022-11-18T06:03:37;99846.78;;;8.28;100.00
69528;BME280;57136;51.986;4.468;2022-11-18T06:06:05;99847.69;;;8.22;100.00
69528;BME280;57136;51.986;4.468;2022-11-18T06:08:42;99853.75;;;8.12;100.00
69528;BME280;57136;51.986;4.468;2022-11-18T06:11:11;99866.72;;;8.18;100.00
69528;BME280;57136;51.986;4.468;2022-11-18T06:13:42;99861.53;;;8.18;100.00
69528;BME280;57136;51.986;4.468;2022-11-18T06:16:14;99868.44;;;8.29;100.00
69528;BME280;57136;51.986;4.468;2022-11-18T06:18:40;99875.34;;;8.34;100.00
69528;BME280;57136;51.986;4.468;2022-11-18T06:21:05;99878.78;;;8.38;100.00
69528;BME280;57136;51.986;4.468;2022-11-18T06:23:34;99880.56;;;8.33;100.00
69528;BME280;57136;51.986;4.468;2022-11-18T06:25:59;99885.72;;;8.34;100.00
69528;BME280;57136;51.986;4.468;2022-11-18T06:28:25;99889.19;;;8.36;100.00
69528;BME280;57136;51.986;4.468;2022-11-18T06:30:52;99895.25;;;8.35;100.00
69528;BME280;57136;51.986;4.468;2022-11-18T06:33:17;99901.31;;;8.30;100.00
69528;BME280;57136;51.986;4.468;2022-11-18T06:35:43;99907.34;;;8.33;100.00
69528;BME280;57136;51.986;4.468;2022-11-18T06:38:09;99919.50;;;8.36;100.00
69528;BME280;57136;51.986;4.468;2022-11-18T06:40:34;99916.91;;;8.30;100.00
69528;BME280;57136;51.986;4.468;2022-11-18T06:43:05;99919.50;;;8.27;100.00
69528;BME280;57136;51.986;4.468;2022-11-18T06:45:50;99921.19;;;8.23;100.00
69528;BME280;57136;51.986;4.468;2022-11-18T06:48:33;99922.09;;;8.09;100.00
69528;BME280;57136;51.986;4.468;2022-11-18T06:50:59;99929.00;;;8.23;100.00
69528;BME280;57136;51.986;4.468;2022-11-18T06:53:24;99928.13;;;8.24;100.00
69528;BME280;57136;51.986;4.468;2022-11-18T06:55:49;99938.53;;;8.22;100.00
69528;BME280;57136;51.986;4.468;2022-11-18T06:58:15;99946.31;;;8.18;100.00
69528;BME280;57136;51.986;4.468;2022-11-18T07:00:40;99953.22;;;8.09;100.00
69528;BME280;57136;51.986;4.468;2022-11-18T07:03:05;99949.75;;;8.12;100.00
69528;BME280;57136;51.986;4.468;2022-11-18T07:05:31;99949.78;;;8.14;100.00
69528;BME280;57136;51.986;4.468;2022-11-18T07:07:56;99954.94;;;8.35;100.00
69528;BME280;57136;51.986;4.468;2022-11-18T07:10:21;99957.56;;;8.42;100.00
69528;BME280;57136;51.986;4.468;2022-11-18T07:12:47;99964.47;;;8.41;100.00
69528;BME280;57136;51.986;4.468;2022-11-18T07:15:12;99964.47;;;8.58;100.00
69528;BME280;57136;51.986;4.468;2022-11-18T07:17:38;99975.75;;;8.59;100.00
69528;BME280;57136;51.986;4.468;2022-11-18T07:20:03;99974.88;;;8.67;100.00
69528;BME280;57136;51.986;4.468;2022-11-18T07:22:28;99978.28;;;8.88;100.00
69528;BME280;57136;51.986;4.468;2022-11-18T07:24:54;99973.94;;;8.96;100.00
69528;BME280;57136;51.986;4.468;2022-11-18T07:27:19;99976.50;;;8.95;100.00
69528;BME280;57136;51.986;4.468;2022-11-18T07:29:44;99984.28;;;9.07;100.00
69528;BME280;57136;51.986;4.468;2022-11-18T07:32:10;99985.16;;;9.12;100.00
69528;BME280;57136;51.986;4.468;2022-11-18T07:34:35;99994.63;;;9.23;100.00
69528;BME280;57136;51.986;4.468;2022-11-18T07:37:00;99989.47;;;9.20;100.00
69528;BME280;57136;51.986;4.468;2022-11-18T07:39:26;99996.41;;;9.14;100.00
69528;BME280;57136;51.986;4.468;2022-11-18T07:41:51;100000.69;;;9.29;100.00
69528;BME280;57136;51.986;4.468;2022-11-18T07:44:17;100000.69;;;9.25;100.00
69528;BME280;57136;51.986;4.468;2022-11-18T07:46:42;100013.69;;;9.33;100.00
69528;BME280;57136;51.986;4.468;2022-11-18T07:49:09;100018.78;;;9.50;100.00
69528;BME280;57136;51.986;4.468;2022-11-18T07:51:38;100018.81;;;9.48;100.00
69528;BME280;57136;51.986;4.468;2022-11-18T07:54:11;100022.34;;;9.24;100.00
69528;BME280;57136;51.986;4.468;2022-11-18T07:56:38;100026.59;;;9.51;100.00
69528;BME280;57136;51.986;4.468;2022-11-18T07:59:03;100035.28;;;9.47;100.00
69528;BME280;57136;51.986;4.468;2022-11-18T08:01:29;100036.97;;;9.56;100.00
69528;BME280;57136;51.986;4.468;2022-11-18T08:04:03;100040.38;;;9.72;100.00
69528;BME280;57136;51.986;4.468;2022-11-18T08:06:31;100042.88;;;9.89;100.00
69528;BME280;57136;51.986;4.468;2022-11-18T08:08:58;100048.91;;;9.97;100.00
69528;BME280;57136;51.986;4.468;2022-11-18T08:11:23;100047.19;;;9.95;100.00
69528;BME280;57136;51.986;4.468;2022-11-18T08:13:50;100055.75;;;10.14;100.00
69528;BME280;57136;51.986;4.468;2022-11-18T08:16:18;100056.72;;;9.99;100.00
69528;BME280;57136;51.986;4.468;2022-11-18T08:18:43;100063.56;;;10.15;100.00
69528;BME280;57136;51.986;4.468;2022-11-18T08:21:09;100064.44;;;10.17;100.00
69528;BME280;57136;51.986;4.468;2022-11-18T08:23:35;100072.19;;;10.25;100.00
69528;BME280;57136;51.986;4.468;2022-11-18T08:26:02;100074.75;;;10.31;100.00
69528;BME280;57136;51.986;4.468;2022-11-18T08:28:28;100072.97;;;10.33;100.00
69528;BME280;57136;51.986;4.468;2022-11-18T08:30:54;100074.94;;;9.96;100.00
69528;BME280;57136;51.986;4.468;2022-11-18T08:33:19;100074.00;;;10.08;100.00
69528;BME280;57136;51.986;4.468;2022-11-18T08:35:44;100073.13;;;10.13;100.00
69528;BME280;57136;51.986;4.468;2022-11-18T08:38:10;100084.31;;;10.28;100.00
69528;BME280;57136;51.986;4.468;2022-11-18T08:40:35;100088.69;;;10.19;100.00
69528;BME280;57136;51.986;4.468;2022-11-18T08:43:01;100093.81;;;10.32;100.00
69528;BME280;57136;51.986;4.468;2022-11-18T08:45:26;100092.06;;;10.35;100.00
69528;BME280;57136;51.986;4.468;2022-11-18T08:47:51;100090.38;;;10.30;100.00
69528;BME280;57136;51.986;4.468;2022-11-18T08:50:17;100103.38;;;10.30;100.00
69528;BME280;57136;51.986;4.468;2022-11-18T08:52:42;100086.91;;;10.25;100.00
69528;BME280;57136;51.986;4.468;2022-11-18T08:55:07;100101.59;;;10.38;100.00
69528;BME280;57136;51.986;4.468;2022-11-18T08:57:33;100109.47;;;10.32;100.00
69528;BME280;57136;51.986;4.468;2022-11-18T09:00:03;100110.38;;;10.18;100.00
69528;BME280;57136;51.986;4.468;2022-11-18T09:02:28;100102.63;;;10.14;100.00
69528;BME280;57136;51.986;4.468;2022-11-18T09:04:53;100108.56;;;10.34;100.00
69528;BME280;57136;51.986;4.468;2022-11-18T09:07:20;100111.19;;;10.30;100.00
69528;BME280;57136;51.986;4.468;2022-11-18T09:09:47;100116.38;;;10.36;100.00
69528;BME280;57136;51.986;4.468;2022-11-18T09:12:13;100112.91;;;10.43;100.00
69528;BME280;57136;51.986;4.468;2022-11-18T09:14:45;100113.75;;;10.34;100.00
69528;BME280;57136;51.986;4.468;2022-11-18T09:17:11;100113.78;;;10.33;100.00
69528;BME280;57136;51.986;4.468;2022-11-18T09:19:37;100112.09;;;10.26;100.00
69528;BME280;57136;51.986;4.468;2022-11-18T09:22:06;100117.22;;;10.37;100.00
69528;BME280;57136;51.986;4.468;2022-11-18T09:24:32;100125.91;;;10.45;100.00
69528;BME280;57136;51.986;4.468;2022-11-18T09:27:04;100123.38;;;10.26;100.00
69528;BME280;57136;51.986;4.468;2022-11-18T09:29:30;100127.66;;;10.37;100.00
69528;BME280;57136;51.986;4.468;2022-11-18T09:31:56;100125.91;;;10.35;100.00
69528;BME280;57136;51.986;4.468;2022-11-18T09:34:22;100129.41;;;10.33;100.00
69528;BME280;57136;51.986;4.468;2022-11-18T09:36:47;100132.94;;;10.23;100.00
69528;BME280;57136;51.986;4.468;2022-11-18T09:39:13;100131.09;;;10.46;100.00
69528;BME280;57136;51.986;4.468;2022-11-18T09:41:49;100128.53;;;10.37;100.00
69528;BME280;57136;51.986;4.468;2022-11-18T09:44:43;100142.31;;;10.58;100.00
69528;BME280;57136;51.986;4.468;2022-11-18T09:47:18;100139.69;;;10.61;100.00
69528;BME280;57136;51.986;4.468;2022-11-18T09:49:45;100143.19;;;10.57;100.00
69528;BME280;57136;51.986;4.468;2022-11-18T09:54:51;100158.75;;;10.68;100.00
69528;BME280;57136;51.986;4.468;2022-11-18T09:57:26;100177.78;;;10.82;100.00
69528;BME280;57136;51.986;4.468;2022-11-18T09:59:53;100181.22;;;10.84;100.00
69528;BME280;57136;51.986;4.468;2022-11-18T10:02:46;100181.28;;;10.75;100.00
69528;BME280;57136;51.986;4.468;2022-11-18T10:05:18;100181.16;;;10.93;100.00
69528;BME280;57136;51.986;4.468;2022-11-18T10:08:10;100183.75;;;10.95;100.00
69528;BME280;57136;51.986;4.468;2022-11-18T10:16:21;100193.06;;;11.22;100.00
69528;BME280;57136;51.986;4.468;2022-11-18T10:24:06;100193.41;;;11.79;100.00
69528;BME280;57136;51.986;4.468;2022-11-18T10:26:35;100199.31;;;11.98;99.88
69528;BME280;57136;51.986;4.468;2022-11-18T10:29:02;100193.81;;;12.21;98.60
69528;BME280;57136;51.986;4.468;2022-11-18T10:31:27;100193.88;;;12.15;97.20
69528;BME280;57136;51.986;4.468;2022-11-18T10:34:00;100203.63;;;12.04;97.33
69528;BME280;57136;51.986;4.468;2022-11-18T10:36:28;100198.94;;;12.29;96.75
69528;BME280;57136;51.986;4.468;2022-11-18T10:39:06;100197.19;;;12.28;96.54
69528;BME280;57136;51.986;4.468;2022-11-18T10:41:43;100193.69;;;12.29;95.29
69528;BME280;57136;51.986;4.468;2022-11-18T10:44:31;100202.25;;;12.42;95.00
69528;BME280;57136;51.986;4.468;2022-11-18T10:47:29;100205.34;;;12.03;95.53
69528;BME280;57136;51.986;4.468;2022-11-18T10:49:58;100203.53;;;12.08;95.78
69528;BME280;57136;51.986;4.468;2022-11-18T10:52:26;100208.06;;;11.91;96.56
69528;BME280;57136;51.986;4.468;2022-11-18T10:55:25;100218.41;;;12.03;95.83
69528;BME280;57136;51.986;4.468;2022-11-18T10:57:57;100212.66;;;11.68;97.13
69528;BME280;57136;51.986;4.468;2022-11-18T11:00:50;100218.72;;;11.71;98.12
69528;BME280;57136;51.986;4.468;2022-11-18T11:03:35;100216.75;;;11.93;97.84
69528;BME280;57136;51.986;4.468;2022-11-18T11:06:27;100219.25;;;12.07;97.83
69528;BME280;57136;51.986;4.468;2022-11-18T11:08:59;100218.69;;;11.74;98.21
69528;BME280;57136;51.986;4.468;2022-11-18T11:11:27;100231.84;;;11.61;98.11
69528;BME280;57136;51.986;4.468;2022-11-18T11:14:00;100230.09;;;11.65;98.29
69528;BME280;57136;51.986;4.468;2022-11-18T11:16:27;100232.69;;;11.66;98.38
69528;BME280;57136;51.986;4.468;2022-11-18T11:18:58;100231.81;;;11.69;98.72
69528;BME280;57136;51.986;4.468;2022-11-18T11:21:25;100233.47;;;11.75;98.92
69528;BME280;57136;51.986;4.468;2022-11-18T11:23:52;100239.66;;;11.66;99.73
69528;BME280;57136;51.986;4.468;2022-11-18T11:28:54;100245.78;;;11.62;99.94
69528;BME280;57136;51.986;4.468;2022-11-18T11:37:15;100247.63;;;11.52;100.00
69528;BME280;57136;51.986;4.468;2022-11-18T11:40:02;100248.25;;;11.74;100.00
69528;BME280;57136;51.986;4.468;2022-11-18T11:43:00;100247.53;;;11.63;100.00
69528;BME280;57136;51.986;4.468;2022-11-18T11:51:24;100249.84;;;11.89;100.00
69528;BME280;57136;51.986;4.468;2022-11-18T11:57:03;100259.22;;;12.13;98.20
69528;BME280;57136;51.986;4.468;2022-11-18T11:59:36;100263.78;;;11.88;99.19
69528;BME280;57136;51.986;4.468;2022-11-18T12:07:32;100256.91;;;11.84;98.56
69528;BME280;57136;51.986;4.468;2022-11-18T12:15:24;100262.88;;;11.94;99.66
69528;BME280;57136;51.986;4.468;2022-11-18T12:23:30;100264.81;;;11.75;99.71
69528;BME280;57136;51.986;4.468;2022-11-18T12:25:57;100263.88;;;11.82;99.13
69528;BME280;57136;51.986;4.468;2022-11-18T12:28:30;100266.50;;;11.79;99.18
69528;BME280;57136;51.986;4.468;2022-11-18T12:34:04;100270.22;;;11.56;99.84
69528;BME280;57136;51.986;4.468;2022-11-18T12:36:41;100265.75;;;11.67;100.00
69528;BME280;57136;51.986;4.468;2022-11-18T12:41:54;100272.75;;;11.64;100.00
69528;BME280;57136;51.986;4.468;2022-11-18T12:44:39;100273.75;;;11.49;100.00
69528;BME280;57136;51.986;4.468;2022-11-18T12:47:07;100268.63;;;11.33;100.00
69528;BME280;57136;51.986;4.468;2022-11-18T12:52:03;100277.34;;;11.31;100.00
69528;BME280;57136;51.986;4.468;2022-11-18T12:54:45;100276.47;;;11.33;100.00
69528;BME280;57136;51.986;4.468;2022-11-18T12:57:16;100276.53;;;11.22;100.00
69528;BME280;57136;51.986;4.468;2022-11-18T12:59:42;100279.94;;;11.37;100.00
69528;BME280;57136;51.986;4.468;2022-11-18T13:04:37;100285.13;;;11.38;100.00
69528;BME280;57136;51.986;4.468;2022-11-18T13:07:04;100279.09;;;11.32;100.00
69528;BME280;57136;51.986;4.468;2022-11-18T13:09:51;100295.59;;;11.37;100.00
69528;BME280;57136;51.986;4.468;2022-11-18T13:12:17;100291.19;;;11.42;100.00
69528;BME280;57136;51.986;4.468;2022-11-18T13:14:43;100296.41;;;11.41;100.00
69528;BME280;57136;51.986;4.468;2022-11-18T13:20:35;100306.13;;;11.20;100.00
69528;BME280;57136;51.986;4.468;2022-11-18T13:23:03;100305.25;;;11.16;100.00
69528;BME280;57136;51.986;4.468;2022-11-18T13:25:54;100299.31;;;10.97;100.00
69528;BME280;57136;51.986;4.468;2022-11-18T13:31:12;100311.44;;;11.03;100.00
69528;BME280;57136;51.986;4.468;2022-11-18T13:33:40;100300.13;;;11.07;100.00
69528;BME280;57136;51.986;4.468;2022-11-18T13:36:31;100311.41;;;11.07;100.00
69528;BME280;57136;51.986;4.468;2022-11-18T13:39:03;100314.00;;;11.12;100.00
69528;BME280;57136;51.986;4.468;2022-11-18T13:41:31;100312.34;;;10.99;100.00
69528;BME280;57136;51.986;4.468;2022-11-18T13:44:14;100312.31;;;11.02;100.00
69528;BME280;57136;51.986;4.468;2022-11-18T13:46:42;100315.75;;;11.08;100.00
69528;BME280;57136;51.986;4.468;2022-11-18T13:49:13;100320.91;;;11.16;100.00
69528;BME280;57136;51.986;4.468;2022-11-18T13:51:43;100327.00;;;11.17;100.00
69528;BME280;57136;51.986;4.468;2022-11-18T13:54:22;100328.72;;;11.19;100.00
69528;BME280;57136;51.986;4.468;2022-11-18T13:56:48;100332.16;;;11.28;100.00
69528;BME280;57136;51.986;4.468;2022-11-18T13:59:17;100325.25;;;11.19;100.00
69528;BME280;57136;51.986;4.468;2022-11-18T14:01:46;100330.41;;;11.27;100.00
69528;BME280;57136;51.986;4.468;2022-11-18T14:04:20;100329.53;;;11.31;100.00
69528;BME280;57136;51.986;4.468;2022-11-18T14:06:46;100326.97;;;11.26;100.00
69528;BME280;57136;51.986;4.468;2022-11-18T14:09:20;100327.78;;;11.33;100.00
69528;BME280;57136;51.986;4.468;2022-11-18T14:14:33;100334.88;;;11.11;100.00
69528;BME280;57136;51.986;4.468;2022-11-18T14:17:04;100340.91;;;11.17;100.00
69528;BME280;57136;51.986;4.468;2022-11-18T14:19:31;100334.81;;;11.20;100.00
69528;BME280;57136;51.986;4.468;2022-11-18T14:22:04;100348.75;;;11.19;100.00
69528;BME280;57136;51.986;4.468;2022-11-18T14:24:31;100341.81;;;11.15;100.00
69528;BME280;57136;51.986;4.468;2022-11-18T14:26:56;100341.78;;;11.21;100.00
69528;BME280;57136;51.986;4.468;2022-11-18T14:29:21;100345.25;;;11.23;100.00
69528;BME280;57136;51.986;4.468;2022-11-18T14:34:37;100354.78;;;11.22;100.00
69528;BME280;57136;51.986;4.468;2022-11-18T14:37:13;100353.09;;;11.17;100.00
69528;BME280;57136;51.986;4.468;2022-11-18T14:39:39;100357.44;;;11.15;100.00
69528;BME280;57136;51.986;4.468;2022-11-18T14:42:08;100372.28;;;11.03;100.00